PWSweather.com
Personal Weather Stations
Station Observations
I1GXVMETEO
Arona, DormellettoIT 28040

AronaDormellettoIT 28040

Lat: 45.72599, Lon: 8.58095

Elevation: 750

Station Type: La Crosse WS 2355 with radiation shield

http://www.meteodormelletto.com

Latest ConditionsUpdated 11:00:15 PM GMT+01:01 Friday, Oct 18, 2019
Currently Today's Max Today's Min Today's Average
Temperature 59.0°F15.0°C 64.4°F18.0°C 53.6°F12.0°C 58.9°F14.9°C
Dew Point 59.0°F15.0°C 59.0°F15.0°C 53.6°F12.0°C 56.6°F13.7°C
Winds 3.5 mph SSE5.6 kmh SSE 6.9 mph -11.1 kmh - - 3.9 mph 6.3 kmh
Wind Gusts 3.5 mph5.6 kmh 6.9 mph11.1 kmh - -
Humidity 100% 100% 77% 93%
Pressure 30.03 in1016.9 mb 30.09 in1019.0 mb 30.03 in1016.9 mb -
Hour Temp Dew Point Humidity Winds Wind Gusts Pressure Precip Precip Rate Daily Precip Total
11:00 PM 59.0°F15.0°C 59.0°F15.0°C 100% 3.5 mph SSE5.6 kmh SSE 3.5 mph5.6 kmh 30.03 in1016.9 mb - 0.00 in0.0 mm 0.00 in0.0 mm
10:00 PM 59.0°F15.0°C 59.0°F15.0°C 100% 4.6 mph SE7.4 kmh SE 4.6 mph7.4 kmh 30.03 in1016.9 mb - 0.00 in0.0 mm 0.00 in0.0 mm
09:00 PM 59.0°F15.0°C 59.0°F15.0°C 100% 4.6 mph SE7.4 kmh SE 4.6 mph7.4 kmh 30.03 in1016.9 mb - 0.00 in0.0 mm 0.00 in0.0 mm
08:00 PM 60.8°F16.0°C 58.8°F14.9°C 93% 3.5 mph ESE5.6 kmh ESE 3.5 mph5.6 kmh 30.03 in1016.9 mb - 0.00 in0.0 mm 0.00 in0.0 mm
07:00 PM 60.8°F16.0°C 58.8°F14.9°C 93% 5.8 mph SSE9.3 kmh SSE 5.8 mph9.3 kmh 30.03 in1016.9 mb - 0.00 in0.0 mm 0.00 in0.0 mm
06:00 PM 62.6°F17.0°C 59.0°F15.0°C 88% 6.9 mph SE11.1 kmh SE 6.9 mph11.1 kmh 30.03 in1016.9 mb - 0.00 in0.0 mm 0.00 in0.0 mm
05:00 PM 64.4°F18.0°C 57.0°F13.9°C 77% 4.6 mph SSW7.4 kmh SSW 4.6 mph7.4 kmh 30.03 in1016.9 mb - 0.00 in0.0 mm 0.00 in0.0 mm
04:00 PM 64.4°F18.0°C 57.0°F13.9°C 77% 3.5 mph SSW5.6 kmh SSW 3.5 mph5.6 kmh 30.03 in1016.9 mb - 0.00 in0.0 mm 0.00 in0.0 mm
03:00 PM 64.4°F18.0°C 57.0°F13.9°C 77% 3.5 mph SSW5.6 kmh SSW 3.5 mph5.6 kmh 30.03 in1016.9 mb - 0.00 in0.0 mm 0.00 in0.0 mm
02:00 PM 62.6°F17.0°C 57.0°F13.9°C 82% 3.5 mph S5.6 kmh S 3.5 mph5.6 kmh 30.06 in1017.9 mb - 0.00 in0.0 mm 0.00 in0.0 mm
01:00 PM 62.6°F17.0°C 57.0°F13.9°C 82% 4.6 mph SE7.4 kmh SE 4.6 mph7.4 kmh 30.06 in1017.9 mb - 0.00 in0.0 mm 0.00 in0.0 mm
12:00 PM 62.6°F17.0°C 55.3°F12.9°C 77% 3.5 mph E5.6 kmh E 3.5 mph5.6 kmh 30.09 in1019.0 mb - 0.00 in0.0 mm 0.00 in0.0 mm
11:00 AM 60.8°F16.0°C 55.3°F12.9°C 82% 3.5 mph NE5.6 kmh NE 3.5 mph5.6 kmh 30.09 in1019.0 mb - 0.00 in0.0 mm 0.00 in0.0 mm
10:00 AM 59.0°F15.0°C 57.0°F13.9°C 93% 3.5 mph E5.6 kmh E 3.5 mph5.6 kmh 30.06 in1017.9 mb - 0.00 in0.0 mm 0.00 in0.0 mm
09:00 AM 57.2°F14.0°C 57.2°F14.0°C 100% 3.5 mph NE5.6 kmh NE 3.5 mph5.6 kmh 30.06 in1017.9 mb - 0.00 in0.0 mm 0.00 in0.0 mm
08:00 AM 55.4°F13.0°C 55.4°F13.0°C 100% 2.3 mph NE3.7 kmh NE 2.3 mph3.7 kmh 30.06 in1017.9 mb - 0.00 in0.0 mm 0.00 in0.0 mm
07:00 AM 55.4°F13.0°C 55.4°F13.0°C 100% 4.6 mph NNE7.4 kmh NNE 4.6 mph7.4 kmh 30.06 in1017.9 mb - 0.00 in0.0 mm 0.00 in0.0 mm
06:00 AM 55.4°F13.0°C 55.4°F13.0°C 100% 3.5 mph NE5.6 kmh NE 3.5 mph5.6 kmh 30.06 in1017.9 mb - 0.00 in0.0 mm 0.00 in0.0 mm
05:00 AM 55.4°F13.0°C 55.4°F13.0°C 100% 2.3 mph SE3.7 kmh SE 2.3 mph3.7 kmh 30.06 in1017.9 mb - 0.00 in0.0 mm 0.00 in0.0 mm
04:00 AM 55.4°F13.0°C 55.4°F13.0°C 100% 3.5 mph N5.6 kmh N 3.5 mph5.6 kmh 30.06 in1017.9 mb - 0.00 in0.0 mm 0.00 in0.0 mm
03:00 AM 55.4°F13.0°C 55.4°F13.0°C 100% 4.6 mph N7.4 kmh N 4.6 mph7.4 kmh 30.09 in1019.0 mb - 0.00 in0.0 mm 0.00 in0.0 mm
02:00 AM 55.4°F13.0°C 55.4°F13.0°C 100% 4.6 mph NNE7.4 kmh NNE 4.6 mph7.4 kmh 30.09 in1019.0 mb - 0.00 in0.0 mm 0.00 in0.0 mm
01:00 AM 53.6°F12.0°C 53.6°F12.0°C 100% 3.5 mph NE5.6 kmh NE 3.5 mph5.6 kmh 30.09 in1019.0 mb - 0.00 in0.0 mm 0.00 in0.0 mm
12:00 AM 53.6°F12.0°C 53.6°F12.0°C 100% 2.3 mph NNE3.7 kmh NNE 2.3 mph3.7 kmh 30.09 in1019.0 mb - 0.00 in0.0 mm 0.00 in0.0 mm